Karmel — 9HA2896 — position and weather

sailwx.info

Track history (hours):
 
Tides and Currents Weather Stations Pressure Air Temp Water Temp Dewpoint Dewpoint Depression Visibility Wind Speed Wind Dir Waves Ship Positions

Karmel

Last reported at 2016-Sep-24 03:33 UTC. Time now 2016-Sep-26 19:06 UTC.
Position N 59°38' E 023°21'.

Length 90 m; draft 5 m.

Type: Ship. MMSI: 256632000.

Date/timePositionNaut miles runAvg speedWind from/ knotsBaromVisibWave heightAir tempDewpointWater temp
2016-Sep-24 03:33N 59°38' E 023°21'1110.7
2016-Sep-24 02:29N 59°41' E 023°43'11510.3
2016-Sep-23 15:22N 60°06' E 027°26'  
2016-Sep-18 15:33N 59°59' E 026°36'  
2016-Sep-16 03:30N 55°39' E 019°46'1010.5
2016-Sep-16 02:31N 55°30' E 019°38'2010.4
2016-Sep-16 00:34N 55°12' E 019°23'2110.6
2016-Sep-15 22:33N 54°52' E 019°08'1110.8
2016-Sep-15 21:34N 54°43' E 018°60'1111.1
2016-Sep-15 20:33N 54°33' E 018°50'11 5.5
2016-Sep-15 18:32N 54°23' E 018°40'0 0.0
2016-Sep-15 12:32N 54°23' E 018°40'0 0.0
2016-Sep-15 11:29N 54°23' E 018°40'0 0.0
2016-Sep-15 04:32N 54°23' E 018°40'3 3.3
2016-Sep-15 03:33N 54°27' E 018°39'0 0.2
2016-Sep-15 01:33N 54°26' E 018°39'0 0.0
2016-Sep-14 22:33N 54°26' E 018°39'0 0.0
2016-Sep-14 21:33N 54°26' E 018°39'20 4.9
2016-Sep-14 17:33N 54°43' E 018°56'1111.3
2016-Sep-14 16:33N 54°54' E 018°52'3411.4
2016-Sep-14 13:33N 55°27' E 018°36'1211.6
2016-Sep-14 12:33N 55°38' E 018°30'2311.5
2016-Sep-14 10:33N 56°01' E 018°19'1111.3
2016-Sep-14 09:33N 56°12' E 018°14'2611.5
2016-Sep-14 07:18N 56°37' E 018°01'  
Track history (hours):
 
Tides and Currents Weather Stations Pressure Air Temp Water Temp Dewpoint Dewpoint Depression Visibility Wind Speed Wind Dir Waves Ship Positions

Karmel

Last reported at 2016-Sep-24 03:33 UTC. Time now 2016-Sep-26 19:06 UTC.
Position N 59°38' E 023°21'.

Length 90 m; draft 5 m.

Type: Ship. MMSI: 256632000.

Date/timePositionNaut miles runAvg speedWind from/ knotsBaromVisibWave heightAir tempDewpointWater temp
2016-Sep-24 03:33N 59°38' E 023°21'1110.7
2016-Sep-24 02:29N 59°41' E 023°43'11510.3
2016-Sep-23 15:22N 60°06' E 027°26'  
2016-Sep-18 15:33N 59°59' E 026°36'  
2016-Sep-16 03:30N 55°39' E 019°46'1010.5
2016-Sep-16 02:31N 55°30' E 019°38'2010.4
2016-Sep-16 00:34N 55°12' E 019°23'2110.6
2016-Sep-15 22:33N 54°52' E 019°08'1110.8
2016-Sep-15 21:34N 54°43' E 018°60'1111.1
2016-Sep-15 20:33N 54°33' E 018°50'11 5.5
2016-Sep-15 18:32N 54°23' E 018°40'0 0.0
2016-Sep-15 12:32N 54°23' E 018°40'0 0.0
2016-Sep-15 11:29N 54°23' E 018°40'0 0.0
2016-Sep-15 04:32N 54°23' E 018°40'3 3.3
2016-Sep-15 03:33N 54°27' E 018°39'0 0.2
2016-Sep-15 01:33N 54°26' E 018°39'0 0.0
2016-Sep-14 22:33N 54°26' E 018°39'0 0.0
2016-Sep-14 21:33N 54°26' E 018°39'20 4.9
2016-Sep-14 17:33N 54°43' E 018°56'1111.3
2016-Sep-14 16:33N 54°54' E 018°52'3411.4
2016-Sep-14 13:33N 55°27' E 018°36'1211.6
2016-Sep-14 12:33N 55°38' E 018°30'2311.5
2016-Sep-14 10:33N 56°01' E 018°19'1111.3
2016-Sep-14 09:33N 56°12' E 018°14'2611.5
2016-Sep-14 07:18N 56°37' E 018°01'  

Dump ship's entire track history